sensor_id;sensor_type;location;lat;lon;timestamp;pressure;altitude;pressure_sealevel;temperature;humidity
69848;BME280;57143;55.940;37.496;2022-11-30T00:00:18;101983.44;;;-9.16;100.00
69848;BME280;57143;55.940;37.496;2022-11-30T00:02:46;101977.31;;;-9.17;100.00
69848;BME280;57143;55.940;37.496;2022-11-30T00:05:14;101975.78;;;-9.25;100.00
69848;BME280;57143;55.940;37.496;2022-11-30T00:07:41;101980.16;;;-9.26;100.00
69848;BME280;57143;55.940;37.496;2022-11-30T00:10:10;101983.75;;;-9.28;100.00
69848;BME280;57143;55.940;37.496;2022-11-30T00:12:38;101975.88;;;-9.28;100.00
69848;BME280;57143;55.940;37.496;2022-11-30T00:15:07;101977.66;;;-9.30;100.00
69848;BME280;57143;55.940;37.496;2022-11-30T00:17:36;101870.69;;;-9.91;100.00
69848;BME280;57143;55.940;37.496;2022-11-30T00:20:04;101978.50;;;-9.30;100.00
69848;BME280;57143;55.940;37.496;2022-11-30T00:22:32;101969.09;;;-9.38;100.00
69848;BME280;57143;55.940;37.496;2022-11-30T00:24:59;101964.84;;;-9.42;100.00
69848;BME280;57143;55.940;37.496;2022-11-30T00:27:32;101984.63;;;-9.29;100.00
69848;BME280;57143;55.940;37.496;2022-11-30T00:29:59;101975.88;;;-9.28;100.00
69848;BME280;57143;55.940;37.496;2022-11-30T00:32:27;101957.94;;;-9.46;100.00
69848;BME280;57143;55.940;37.496;2022-11-30T00:34:54;101982.84;;;-9.27;100.00
69848;BME280;57143;55.940;37.496;2022-11-30T00:37:22;101983.75;;;-9.28;100.00
69848;BME280;57143;55.940;37.496;2022-11-30T00:39:49;101976.00;;;-9.34;100.00
69848;BME280;57143;55.940;37.496;2022-11-30T00:42:16;101978.50;;;-9.30;100.00
69848;BME280;57143;55.940;37.496;2022-11-30T00:44:44;101957.00;;;-9.44;100.00
69848;BME280;57143;55.940;37.496;2022-11-30T00:47:11;101925.88;;;-9.59;100.00
69848;BME280;57143;55.940;37.496;2022-11-30T00:49:38;101972.41;;;-9.30;100.00
69848;BME280;57143;55.940;37.496;2022-11-30T00:52:05;101978.50;;;-9.30;100.00
69848;BME280;57143;55.940;37.496;2022-11-30T00:54:32;101984.59;;;-9.28;100.00
69848;BME280;57143;55.940;37.496;2022-11-30T00:56:59;101964.59;;;-9.33;100.00
69848;BME280;57143;55.940;37.496;2022-11-30T00:59:26;101976.66;;;-9.26;100.00
69848;BME280;57143;55.940;37.496;2022-11-30T01:01:54;101974.09;;;-9.28;100.00
69848;BME280;57143;55.940;37.496;2022-11-30T01:04:21;101966.34;;;-9.32;100.00
69848;BME280;57143;55.940;37.496;2022-11-30T01:06:49;101976.72;;;-9.28;100.00
69848;BME280;57143;55.940;37.496;2022-11-30T01:09:16;101967.94;;;-9.27;100.00
69848;BME280;57143;55.940;37.496;2022-11-30T01:11:43;101975.88;;;-9.28;100.00
69848;BME280;57143;55.940;37.496;2022-11-30T01:14:10;101972.41;;;-9.30;100.00
69848;BME280;57143;55.940;37.496;2022-11-30T01:16:37;101975.91;;;-9.31;100.00
69848;BME280;57143;55.940;37.496;2022-11-30T01:19:05;101904.28;;;-9.70;100.00
69848;BME280;57143;55.940;37.496;2022-11-30T01:21:32;101974.25;;;-9.34;100.00
69848;BME280;57143;55.940;37.496;2022-11-30T01:23:59;101963.22;;;-9.48;100.00
69848;BME280;57143;55.940;37.496;2022-11-30T01:26:26;101968.28;;;-9.40;100.00
69848;BME280;57143;55.940;37.496;2022-11-30T01:28:54;101910.41;;;-9.71;100.00
69848;BME280;57143;55.940;37.496;2022-11-30T01:31:22;101966.59;;;-9.43;100.00
69848;BME280;57143;55.940;37.496;2022-11-30T01:33:50;101971.91;;;-9.46;100.00
69848;BME280;57143;55.940;37.496;2022-11-30T01:36:21;101911.66;;;-9.86;100.00
69848;BME280;57143;55.940;37.496;2022-11-30T01:38:50;101974.88;;;-9.60;100.00
69848;BME280;57143;55.940;37.496;2022-11-30T01:41:20;101961.81;;;-9.63;100.00
69848;BME280;57143;55.940;37.496;2022-11-30T01:43:49;101957.59;;;-9.70;100.00
69848;BME280;57143;55.940;37.496;2022-11-30T01:46:26;101964.50;;;-9.66;100.00
69848;BME280;57143;55.940;37.496;2022-11-30T01:49:00;101969.97;;;-9.75;100.00
69848;BME280;57143;55.940;37.496;2022-11-30T01:51:33;101962.91;;;-9.73;100.00
69848;BME280;57143;55.940;37.496;2022-11-30T01:54:02;101968.88;;;-9.66;100.00
69848;BME280;57143;55.940;37.496;2022-11-30T01:56:30;101961.88;;;-9.66;100.00
69848;BME280;57143;55.940;37.496;2022-11-30T01:58:57;101954.25;;;-9.76;100.00
69848;BME280;57143;55.940;37.496;2022-11-30T02:01:24;101964.72;;;-9.75;100.00
69848;BME280;57143;55.940;37.496;2022-11-30T02:03:55;101954.41;;;-9.82;100.00
69848;BME280;57143;55.940;37.496;2022-11-30T02:06:25;101969.16;;;-9.78;100.00
69848;BME280;57143;55.940;37.496;2022-11-30T02:08:54;101960.50;;;-9.82;100.00
69848;BME280;57143;55.940;37.496;2022-11-30T02:11:22;101936.38;;;-9.96;100.00
69848;BME280;57143;55.940;37.496;2022-11-30T02:14:09;101890.81;;;-10.28;100.00
69848;BME280;57143;55.940;37.496;2022-11-30T02:16:48;101950.28;;;-9.94;100.00
69848;BME280;57143;55.940;37.496;2022-11-30T02:22:23;101964.03;;;-9.83;100.00
69848;BME280;57143;55.940;37.496;2022-11-30T02:25:03;101958.75;;;-9.81;100.00
69848;BME280;57143;55.940;37.496;2022-11-30T02:27:47;101961.38;;;-9.81;100.00
69848;BME280;57143;55.940;37.496;2022-11-30T02:30:19;101951.78;;;-9.82;100.00
69848;BME280;57143;55.940;37.496;2022-11-30T02:32:50;101864.81;;;-10.37;100.00
69848;BME280;57143;55.940;37.496;2022-11-30T02:35:22;101940.81;;;-10.01;100.00
69848;BME280;57143;55.940;37.496;2022-11-30T02:37:52;101953.81;;;-9.95;100.00
69848;BME280;57143;55.940;37.496;2022-11-30T02:40:20;101938.31;;;-10.05;100.00
69848;BME280;57143;55.940;37.496;2022-11-30T02:42:49;101958.19;;;-9.95;100.00
69848;BME280;57143;55.940;37.496;2022-11-30T02:45:25;101947.00;;;-10.03;100.00
69848;BME280;57143;55.940;37.496;2022-11-30T02:48:01;101955.69;;;-10.00;100.00
69848;BME280;57143;55.940;37.496;2022-11-30T02:50:34;101948.75;;;-10.04;100.00
69848;BME280;57143;55.940;37.496;2022-11-30T02:53:03;101941.13;;;-10.13;100.00
69848;BME280;57143;55.940;37.496;2022-11-30T02:55:30;101927.38;;;-10.22;100.00
69848;BME280;57143;55.940;37.496;2022-11-30T02:57:58;101936.91;;;-10.18;100.00
69848;BME280;57143;55.940;37.496;2022-11-30T03:00:26;101919.88;;;-10.39;100.00
69848;BME280;57143;55.940;37.496;2022-11-30T03:02:53;101943.25;;;-10.30;100.00
69848;BME280;57143;55.940;37.496;2022-11-30T03:05:20;101940.56;;;-10.25;100.00
69848;BME280;57143;55.940;37.496;2022-11-30T03:07:47;101943.25;;;-10.30;100.00
69848;BME280;57143;55.940;37.496;2022-11-30T03:10:14;101948.56;;;-10.33;100.00
69848;BME280;57143;55.940;37.496;2022-11-30T03:12:42;101954.75;;;-10.37;100.00
69848;BME280;57143;55.940;37.496;2022-11-30T03:15:09;101947.88;;;-10.41;100.00
69848;BME280;57143;55.940;37.496;2022-11-30T03:17:38;101959.22;;;-10.42;100.00
69848;BME280;57143;55.940;37.496;2022-11-30T03:20:06;101963.63;;;-10.42;100.00
69848;BME280;57143;55.940;37.496;2022-11-30T03:22:34;101963.63;;;-10.42;100.00
69848;BME280;57143;55.940;37.496;2022-11-30T03:25:01;101955.91;;;-10.50;100.00
69848;BME280;57143;55.940;37.496;2022-11-30T03:27:29;101960.25;;;-10.49;100.00
69848;BME280;57143;55.940;37.496;2022-11-30T03:29:57;101961.91;;;-10.45;100.00
69848;BME280;57143;55.940;37.496;2022-11-30T03:32:24;101964.56;;;-10.46;100.00
69848;BME280;57143;55.940;37.496;2022-11-30T03:34:52;101955.09;;;-10.53;100.00
69848;BME280;57143;55.940;37.496;2022-11-30T03:40:32;101967.25;;;-10.49;100.00
69848;BME280;57143;55.940;37.496;2022-11-30T03:42:59;101966.41;;;-10.51;100.00
69848;BME280;57143;55.940;37.496;2022-11-30T03:45:26;101969.00;;;-10.50;100.00
69848;BME280;57143;55.940;37.496;2022-11-30T03:47:53;101966.50;;;-10.54;100.00
69848;BME280;57143;55.940;37.496;2022-11-30T03:50:22;101944.84;;;-10.64;100.00
69848;BME280;57143;55.940;37.496;2022-11-30T03:52:49;101950.88;;;-10.60;100.00
69848;BME280;57143;55.940;37.496;2022-11-30T03:55:16;101960.38;;;-10.55;100.00
69848;BME280;57143;55.940;37.496;2022-11-30T03:57:43;101959.50;;;-10.55;100.00
69848;BME280;57143;55.940;37.496;2022-11-30T04:00:11;101962.16;;;-10.57;100.00
69848;BME280;57143;55.940;37.496;2022-11-30T04:02:38;101957.84;;;-10.61;100.00
69848;BME280;57143;55.940;37.496;2022-11-30T04:05:06;101966.56;;;-10.59;100.00
69848;BME280;57143;55.940;37.496;2022-11-30T04:07:34;101958.84;;;-10.65;100.00
69848;BME280;57143;55.940;37.496;2022-11-30T04:10:02;101963.97;;;-10.60;100.00
69848;BME280;57143;55.940;37.496;2022-11-30T04:12:30;101935.53;;;-10.80;100.00
69848;BME280;57143;55.940;37.496;2022-11-30T04:14:57;101968.41;;;-10.64;100.00
69848;BME280;57143;55.940;37.496;2022-11-30T04:17:24;101966.66;;;-10.63;100.00
69848;BME280;57143;55.940;37.496;2022-11-30T04:19:51;101964.91;;;-10.63;100.00
69848;BME280;57143;55.940;37.496;2022-11-30T04:22:18;101958.81;;;-10.63;100.00
69848;BME280;57143;55.940;37.496;2022-11-30T04:24:47;101964.91;;;-10.64;100.00
69848;BME280;57143;55.940;37.496;2022-11-30T04:27:14;101956.31;;;-10.71;100.00
69848;BME280;57143;55.940;37.496;2022-11-30T04:29:41;101920.06;;;-10.92;100.00
69848;BME280;57143;55.940;37.496;2022-11-30T04:32:08;101968.47;;;-10.67;100.00
69848;BME280;57143;55.940;37.496;2022-11-30T04:34:35;101941.69;;;-10.81;100.00
69848;BME280;57143;55.940;37.496;2022-11-30T04:37:02;101966.78;;;-10.71;100.00
69848;BME280;57143;55.940;37.496;2022-11-30T04:39:31;101966.81;;;-10.73;100.00
69848;BME280;57143;55.940;37.496;2022-11-30T04:42:00;101966.00;;;-10.75;100.00
69848;BME280;57143;55.940;37.496;2022-11-30T04:44:27;101971.28;;;-10.78;100.00
69848;BME280;57143;55.940;37.496;2022-11-30T04:46:54;101978.34;;;-10.81;100.00
69848;BME280;57143;55.940;37.496;2022-11-30T04:49:21;101987.91;;;-10.80;100.00
69848;BME280;57143;55.940;37.496;2022-11-30T04:51:48;101964.56;;;-10.91;100.00
69848;BME280;57143;55.940;37.496;2022-11-30T04:54:15;101975.78;;;-10.84;100.00
69848;BME280;57143;55.940;37.496;2022-11-30T04:56:42;101968.13;;;-10.95;100.00
69848;BME280;57143;55.940;37.496;2022-11-30T04:59:11;101982.72;;;-10.83;100.00
69848;BME280;57143;55.940;37.496;2022-11-30T05:01:38;101979.34;;;-10.88;100.00
69848;BME280;57143;55.940;37.496;2022-11-30T05:04:05;101975.88;;;-10.90;100.00
69848;BME280;57143;55.940;37.496;2022-11-30T05:06:32;101973.22;;;-10.89;100.00
69848;BME280;57143;55.940;37.496;2022-11-30T05:08:59;101970.69;;;-10.92;100.00
69848;BME280;57143;55.940;37.496;2022-11-30T05:11:26;101972.25;;;-10.83;100.00
69848;BME280;57143;55.940;37.496;2022-11-30T05:13:53;101910.16;;;-11.22;100.00
69848;BME280;57143;55.940;37.496;2022-11-30T05:16:21;101968.94;;;-10.91;100.00
69848;BME280;57143;55.940;37.496;2022-11-30T05:18:48;101968.81;;;-10.85;100.00
69848;BME280;57143;55.940;37.496;2022-11-30T05:21:16;101963.66;;;-10.90;100.00
69848;BME280;57143;55.940;37.496;2022-11-30T05:23:43;101939.41;;;-11.01;100.00
69848;BME280;57143;55.940;37.496;2022-11-30T05:26:11;101943.78;;;-11.00;100.00
69848;BME280;57143;55.940;37.496;2022-11-30T05:28:38;101961.94;;;-10.91;100.00
69848;BME280;57143;55.940;37.496;2022-11-30T05:31:06;101959.34;;;-10.91;100.00
69848;BME280;57143;55.940;37.496;2022-11-30T05:33:34;101954.16;;;-10.95;100.00
69848;BME280;57143;55.940;37.496;2022-11-30T05:36:01;101964.44;;;-10.85;100.00
69848;BME280;57143;55.940;37.496;2022-11-30T05:38:28;101966.22;;;-10.87;100.00
69848;BME280;57143;55.940;37.496;2022-11-30T05:40:58;101963.59;;;-10.87;100.00
69848;BME280;57143;55.940;37.496;2022-11-30T05:43:26;101970.59;;;-10.87;100.00
69848;BME280;57143;55.940;37.496;2022-11-30T05:45:58;101969.75;;;-10.88;100.00
69848;BME280;57143;55.940;37.496;2022-11-30T05:48:26;101981.06;;;-10.86;100.00
69848;BME280;57143;55.940;37.496;2022-11-30T05:50:58;101984.47;;;-10.82;100.00
69848;BME280;57143;55.940;37.496;2022-11-30T05:53:30;101962.97;;;-11.01;100.00
69848;BME280;57143;55.940;37.496;2022-11-30T05:56:00;101989.75;;;-10.85;100.00
69848;BME280;57143;55.940;37.496;2022-11-30T05:58:27;102004.53;;;-10.81;100.00
69848;BME280;57143;55.940;37.496;2022-11-30T06:00:54;102006.28;;;-10.82;100.00
69848;BME280;57143;55.940;37.496;2022-11-30T06:03:21;102002.84;;;-10.84;100.00
69848;BME280;57143;55.940;37.496;2022-11-30T06:05:49;101995.16;;;-10.96;100.00
69848;BME280;57143;55.940;37.496;2022-11-30T06:08:18;102014.13;;;-10.82;100.00
69848;BME280;57143;55.940;37.496;2022-11-30T06:10:46;102011.50;;;-10.82;100.00
69848;BME280;57143;55.940;37.496;2022-11-30T06:13:14;102006.34;;;-10.85;100.00
69848;BME280;57143;55.940;37.496;2022-11-30T06:15:41;102011.44;;;-10.77;100.00
69848;BME280;57143;55.940;37.496;2022-11-30T06:18:10;102003.63;;;-10.79;100.00
69848;BME280;57143;55.940;37.496;2022-11-30T06:20:37;102010.41;;;-10.68;100.00
69848;BME280;57143;55.940;37.496;2022-11-30T06:23:05;102016.47;;;-10.65;100.00
69848;BME280;57143;55.940;37.496;2022-11-30T06:25:33;102018.09;;;-10.59;100.00
69848;BME280;57143;55.940;37.496;2022-11-30T06:28:00;102016.25;;;-10.54;100.00
69848;BME280;57143;55.940;37.496;2022-11-30T06:30:27;102011.00;;;-10.53;100.00
69848;BME280;57143;55.940;37.496;2022-11-30T06:32:54;102013.53;;;-10.50;100.00
69848;BME280;57143;55.940;37.496;2022-11-30T06:35:21;102005.66;;;-10.48;100.00
69848;BME280;57143;55.940;37.496;2022-11-30T06:37:49;102015.84;;;-10.35;100.00
69848;BME280;57143;55.940;37.496;2022-11-30T06:40:17;102019.25;;;-10.28;100.00
69848;BME280;57143;55.940;37.496;2022-11-30T06:42:45;102020.78;;;-10.18;100.00
69848;BME280;57143;55.940;37.496;2022-11-30T06:45:12;102028.44;;;-10.09;100.00
69848;BME280;57143;55.940;37.496;2022-11-30T06:47:39;102024.88;;;-10.07;100.00
69848;BME280;57143;55.940;37.496;2022-11-30T06:50:07;102018.81;;;-10.09;100.00
69848;BME280;57143;55.940;37.496;2022-11-30T06:52:34;102026.38;;;-9.95;100.00
69848;BME280;57143;55.940;37.496;2022-11-30T06:55:01;101996.78;;;-10.02;100.00
69848;BME280;57143;55.940;37.496;2022-11-30T06:57:29;102031.47;;;-9.88;100.00
69848;BME280;57143;55.940;37.496;2022-11-30T06:59:58;102027.88;;;-9.84;100.00
69848;BME280;57143;55.940;37.496;2022-11-30T07:02:25;102017.59;;;-9.93;100.00
69848;BME280;57143;55.940;37.496;2022-11-30T07:04:52;102028.00;;;-9.90;100.00
69848;BME280;57143;55.940;37.496;2022-11-30T07:07:19;102023.59;;;-9.88;100.00
69848;BME280;57143;55.940;37.496;2022-11-30T07:09:46;102017.50;;;-9.90;100.00
69848;BME280;57143;55.940;37.496;2022-11-30T07:12:13;102024.50;;;-9.89;100.00
69848;BME280;57143;55.940;37.496;2022-11-30T07:14:40;102002.69;;;-9.91;100.00
69848;BME280;57143;55.940;37.496;2022-11-30T07:17:08;102037.16;;;-9.69;100.00
69848;BME280;57143;55.940;37.496;2022-11-30T07:19:35;102038.84;;;-9.65;100.00
69848;BME280;57143;55.940;37.496;2022-11-30T07:22:02;102046.63;;;-9.62;100.00
69848;BME280;57143;55.940;37.496;2022-11-30T07:24:29;102034.31;;;-9.59;100.00
69848;BME280;57143;55.940;37.496;2022-11-30T07:27:14;102009.25;;;-9.73;100.00
69848;BME280;57143;55.940;37.496;2022-11-30T07:29:41;102030.91;;;-9.62;100.00
69848;BME280;57143;55.940;37.496;2022-11-30T07:32:09;102040.09;;;-9.43;100.00
69848;BME280;57143;55.940;37.496;2022-11-30T07:34:37;102042.81;;;-9.47;100.00
69848;BME280;57143;55.940;37.496;2022-11-30T07:37:04;102045.09;;;-9.32;100.00
69848;BME280;57143;55.940;37.496;2022-11-30T07:39:31;102037.03;;;-9.25;100.00
69848;BME280;57143;55.940;37.496;2022-11-30T07:41:58;102044.53;;;-9.10;100.00
69848;BME280;57143;55.940;37.496;2022-11-30T07:44:25;102023.53;;;-9.10;100.00
69848;BME280;57143;55.940;37.496;2022-11-30T07:46:52;102043.72;;;-8.78;100.00
69848;BME280;57143;55.940;37.496;2022-11-30T07:49:20;102008.09;;;-8.88;100.00
69848;BME280;57143;55.940;37.496;2022-11-30T07:51:47;102019.44;;;-8.86;100.00
69848;BME280;57143;55.940;37.496;2022-11-30T07:54:14;102043.59;;;-8.72;100.00
69848;BME280;57143;55.940;37.496;2022-11-30T07:56:41;102041.00;;;-8.74;100.00
69848;BME280;57143;55.940;37.496;2022-11-30T07:59:08;102039.13;;;-8.69;100.00
69848;BME280;57143;55.940;37.496;2022-11-30T08:01:35;102031.41;;;-8.76;100.00
69848;BME280;57143;55.940;37.496;2022-11-30T08:04:03;101921.28;;;-9.49;100.00
69848;BME280;57143;55.940;37.496;2022-11-30T08:06:32;102023.03;;;-8.90;100.00
69848;BME280;57143;55.940;37.496;2022-11-30T08:09:01;102031.97;;;-8.64;100.00
69848;BME280;57143;55.940;37.496;2022-11-30T08:11:30;102020.59;;;-8.64;100.00
69848;BME280;57143;55.940;37.496;2022-11-30T08:13:58;102017.13;;;-8.65;100.00
69848;BME280;57143;55.940;37.496;2022-11-30T08:16:27;102028.16;;;-8.52;100.00
69848;BME280;57143;55.940;37.496;2022-11-30T08:18:54;102032.47;;;-8.50;100.00
69848;BME280;57143;55.940;37.496;2022-11-30T08:21:22;102041.25;;;-8.51;100.00
69848;BME280;57143;55.940;37.496;2022-11-30T08:23:53;101977.28;;;-8.82;100.00
69848;BME280;57143;55.940;37.496;2022-11-30T08:26:22;102028.94;;;-8.49;100.00
69848;BME280;57143;55.940;37.496;2022-11-30T08:28:50;102009.06;;;-8.59;100.00
69848;BME280;57143;55.940;37.496;2022-11-30T08:31:21;102015.94;;;-8.53;100.00
69848;BME280;57143;55.940;37.496;2022-11-30T08:33:53;102000.34;;;-8.61;100.00
69848;BME280;57143;55.940;37.496;2022-11-30T08:36:21;102027.09;;;-8.45;100.00
69848;BME280;57143;55.940;37.496;2022-11-30T08:38:49;102019.25;;;-8.47;100.00
69848;BME280;57143;55.940;37.496;2022-11-30T08:41:18;102034.78;;;-8.38;100.00
69848;BME280;57143;55.940;37.496;2022-11-30T08:43:46;102010.28;;;-8.40;100.00
69848;BME280;57143;55.940;37.496;2022-11-30T08:46:15;102028.53;;;-8.33;100.00
69848;BME280;57143;55.940;37.496;2022-11-30T08:48:43;102027.44;;;-8.25;100.00
69848;BME280;57143;55.940;37.496;2022-11-30T08:51:12;102003.88;;;-8.29;100.00
69848;BME280;57143;55.940;37.496;2022-11-30T08:53:41;102020.28;;;-8.23;100.00
69848;BME280;57143;55.940;37.496;2022-11-30T08:56:11;101969.59;;;-8.57;100.00
69848;BME280;57143;55.940;37.496;2022-11-30T08:58:40;102021.28;;;-8.25;100.00
69848;BME280;57143;55.940;37.496;2022-11-30T09:01:08;102016.19;;;-8.30;100.00
69848;BME280;57143;55.940;37.496;2022-11-30T09:03:36;102010.59;;;-8.21;100.00
69848;BME280;57143;55.940;37.496;2022-11-30T09:06:05;101982.19;;;-8.38;100.00
69848;BME280;57143;55.940;37.496;2022-11-30T09:08:32;102026.13;;;-8.12;100.00
69848;BME280;57143;55.940;37.496;2022-11-30T09:11:07;102019.78;;;-8.05;100.00
69848;BME280;57143;55.940;37.496;2022-11-30T09:13:34;102013.56;;;-8.01;100.00
69848;BME280;57143;55.940;37.496;2022-11-30T09:16:03;102015.00;;;-7.91;100.00
69848;BME280;57143;55.940;37.496;2022-11-30T09:18:30;102000.97;;;-7.91;100.00
69848;BME280;57143;55.940;37.496;2022-11-30T09:20:59;102006.06;;;-7.85;100.00
69848;BME280;57143;55.940;37.496;2022-11-30T09:23:27;102010.31;;;-7.81;100.00
69848;BME280;57143;55.940;37.496;2022-11-30T09:25:55;101953.41;;;-8.13;100.00
69848;BME280;57143;55.940;37.496;2022-11-30T09:28:23;102003.34;;;-7.82;100.00
69848;BME280;57143;55.940;37.496;2022-11-30T09:30:51;102006.97;;;-7.86;100.00
69848;BME280;57143;55.940;37.496;2022-11-30T09:33:19;102009.47;;;-7.82;100.00
69848;BME280;57143;55.940;37.496;2022-11-30T09:35:54;102009.38;;;-7.79;100.00
69848;BME280;57143;55.940;37.496;2022-11-30T09:38:22;101995.75;;;-7.93;100.00
69848;BME280;57143;55.940;37.496;2022-11-30T09:40:53;101982.59;;;-7.93;100.00
69848;BME280;57143;55.940;37.496;2022-11-30T09:43:29;102012.53;;;-7.68;100.00
69848;BME280;57143;55.940;37.496;2022-11-30T09:46:00;102020.75;;;-7.49;100.00
69848;BME280;57143;55.940;37.496;2022-11-30T09:48:44;101996.78;;;-7.69;100.00
69848;BME280;57143;55.940;37.496;2022-11-30T09:51:18;101997.38;;;-7.60;100.00
69848;BME280;57143;55.940;37.496;2022-11-30T09:53:51;101995.25;;;-7.49;100.00
69848;BME280;57143;55.940;37.496;2022-11-30T09:56:23;102001.94;;;-7.37;100.00
69848;BME280;57143;55.940;37.496;2022-11-30T09:58:55;101997.22;;;-7.28;100.00
69848;BME280;57143;55.940;37.496;2022-11-30T10:01:22;101931.91;;;-7.70;100.00
69848;BME280;57143;55.940;37.496;2022-11-30T10:03:51;102005.00;;;-7.23;100.00
69848;BME280;57143;55.940;37.496;2022-11-30T10:06:22;102011.41;;;-7.32;100.00
69848;BME280;57143;55.940;37.496;2022-11-30T10:09:04;102005.75;;;-7.20;100.00
69848;BME280;57143;55.940;37.496;2022-11-30T10:11:42;102010.69;;;-7.11;100.00
69848;BME280;57143;55.940;37.496;2022-11-30T10:14:28;102009.81;;;-7.09;100.00
69848;BME280;57143;55.940;37.496;2022-11-30T10:17:03;101983.72;;;-7.17;100.00
69848;BME280;57143;55.940;37.496;2022-11-30T10:19:56;102006.84;;;-6.99;100.00
69848;BME280;57143;55.940;37.496;2022-11-30T10:22:36;102005.13;;;-7.01;100.00
69848;BME280;57143;55.940;37.496;2022-11-30T10:25:10;102007.41;;;-6.91;100.00
69848;BME280;57143;55.940;37.496;2022-11-30T10:27:47;102004.78;;;-6.91;100.00
69848;BME280;57143;55.940;37.496;2022-11-30T10:30:17;102005.78;;;-6.95;100.00
69848;BME280;57143;55.940;37.496;2022-11-30T10:32:50;101992.78;;;-6.99;100.00
69848;BME280;57143;55.940;37.496;2022-11-30T10:35:32;102006.72;;;-6.96;100.00
69848;BME280;57143;55.940;37.496;2022-11-30T10:38:04;102008.44;;;-6.95;100.00
69848;BME280;57143;55.940;37.496;2022-11-30T10:40:39;101999.34;;;-6.86;100.00
69848;BME280;57143;55.940;37.496;2022-11-30T10:43:16;101994.06;;;-6.86;100.00
69848;BME280;57143;55.940;37.496;2022-11-30T10:45:46;101972.47;;;-6.96;100.00
69848;BME280;57143;55.940;37.496;2022-11-30T10:48:18;101997.47;;;-6.83;100.00
69848;BME280;57143;55.940;37.496;2022-11-30T10:50:48;101998.88;;;-6.73;100.00
69848;BME280;57143;55.940;37.496;2022-11-30T10:53:16;101999.75;;;-6.72;100.00
69848;BME280;57143;55.940;37.496;2022-11-30T10:55:46;102005.63;;;-6.64;100.00
69848;BME280;57143;55.940;37.496;2022-11-30T10:58:20;101998.38;;;-6.58;100.00
69848;BME280;57143;55.940;37.496;2022-11-30T11:01:02;102000.03;;;-6.55;100.00
69848;BME280;57143;55.940;37.496;2022-11-30T11:03:29;101996.91;;;-6.42;100.00
69848;BME280;57143;55.940;37.496;2022-11-30T11:06:13;101946.91;;;-6.69;100.00
69848;BME280;57143;55.940;37.496;2022-11-30T11:08:41;101980.97;;;-6.39;100.00
69848;BME280;57143;55.940;37.496;2022-11-30T11:11:29;101991.09;;;-6.27;100.00
69848;BME280;57143;55.940;37.496;2022-11-30T11:14:15;101981.50;;;-6.29;100.00
69848;BME280;57143;55.940;37.496;2022-11-30T11:16:54;101991.91;;;-6.25;100.00
69848;BME280;57143;55.940;37.496;2022-11-30T11:19:26;101925.19;;;-6.76;100.00
69848;BME280;57143;55.940;37.496;2022-11-30T11:22:00;101972.69;;;-6.53;100.00
69848;BME280;57143;55.940;37.496;2022-11-30T11:24:27;101972.06;;;-6.59;100.00
69848;BME280;57143;55.940;37.496;2022-11-30T11:26:55;101981.38;;;-6.49;100.00
69848;BME280;57143;55.940;37.496;2022-11-30T11:29:26;101988.47;;;-6.51;100.00
69848;BME280;57143;55.940;37.496;2022-11-30T11:32:15;101961.72;;;-6.65;100.00
69848;BME280;57143;55.940;37.496;2022-11-30T11:34:44;101985.00;;;-6.53;100.00
69848;BME280;57143;55.940;37.496;2022-11-30T11:37:18;101995.56;;;-6.53;100.00
69848;BME280;57143;55.940;37.496;2022-11-30T11:40:00;101985.25;;;-6.59;100.00
69848;BME280;57143;55.940;37.496;2022-11-30T11:42:32;101993.78;;;-6.53;100.00
69848;BME280;57143;55.940;37.496;2022-11-30T11:45:02;101982.38;;;-6.53;100.00
69848;BME280;57143;55.940;37.496;2022-11-30T11:47:37;101981.63;;;-6.57;100.00
69848;BME280;57143;55.940;37.496;2022-11-30T11:50:26;101990.94;;;-6.47;100.00
69848;BME280;57143;55.940;37.496;2022-11-30T11:53:13;101991.91;;;-6.49;100.00
69848;BME280;57143;55.940;37.496;2022-11-30T11:55:50;101992.03;;;-6.52;100.00
69848;BME280;57143;55.940;37.496;2022-11-30T11:58:23;101990.28;;;-6.53;100.00
69848;BME280;57143;55.940;37.496;2022-11-30T12:00:53;101989.38;;;-6.52;100.00
69848;BME280;57143;55.940;37.496;2022-11-30T12:03:30;101984.84;;;-6.49;100.00
69848;BME280;57143;55.940;37.496;2022-11-30T12:06:01;101983.94;;;-6.48;100.00
69848;BME280;57143;55.940;37.496;2022-11-30T12:08:35;101976.97;;;-6.50;100.00
69848;BME280;57143;55.940;37.496;2022-11-30T12:11:08;101985.59;;;-6.45;100.00
69848;BME280;57143;55.940;37.496;2022-11-30T12:13:39;101995.13;;;-6.41;100.00
69848;BME280;57143;55.940;37.496;2022-11-30T12:16:21;101986.34;;;-6.42;100.00
69848;BME280;57143;55.940;37.496;2022-11-30T12:18:58;101991.59;;;-6.40;100.00
69848;BME280;57143;55.940;37.496;2022-11-30T12:21:37;101982.06;;;-6.44;100.00
69848;BME280;57143;55.940;37.496;2022-11-30T12:24:40;101976.91;;;-6.47;100.00
69848;BME280;57143;55.940;37.496;2022-11-30T12:27:22;101928.63;;;-6.74;100.00
69848;BME280;57143;55.940;37.496;2022-11-30T12:30:00;101987.34;;;-6.44;100.00
69848;BME280;57143;55.940;37.496;2022-11-30T12:32:41;101986.47;;;-6.45;100.00
69848;BME280;57143;55.940;37.496;2022-11-30T12:35:20;101995.31;;;-6.46;100.00
69848;BME280;57143;55.940;37.496;2022-11-30T12:38:01;101986.75;;;-6.52;100.00
69848;BME280;57143;55.940;37.496;2022-11-30T12:40:41;101991.09;;;-6.51;100.00
69848;BME280;57143;55.940;37.496;2022-11-30T12:43:22;101970.63;;;-6.69;100.00
69848;BME280;57143;55.940;37.496;2022-11-30T12:45:57;101995.72;;;-6.58;100.00
69848;BME280;57143;55.940;37.496;2022-11-30T12:48:32;101992.28;;;-6.60;100.00